createdAt,value
2019-02-18T00:00:37.585Z,102.92
2019-02-18T00:03:07.408Z,100.15
2019-02-18T00:05:35.359Z,102.07
2019-02-18T00:08:03.407Z,96.15
2019-02-18T00:10:31.352Z,96.37
2019-02-18T00:12:59.173Z,94.25
2019-02-18T00:15:27.035Z,91.50
2019-02-18T00:17:55.051Z,87.42
2019-02-18T00:20:22.936Z,88.90
2019-02-18T00:22:50.867Z,89.25
2019-02-18T00:25:18.642Z,87.85
2019-02-18T00:27:46.566Z,90.47
2019-02-18T00:30:24.208Z,89.32
2019-02-18T00:32:52.033Z,87.67
2019-02-18T00:35:20.008Z,82.97
2019-02-18T00:37:47.942Z,75.70
2019-02-18T00:40:15.825Z,73.00
2019-02-18T00:42:43.647Z,70.55
2019-02-18T00:45:11.711Z,68.90
2019-02-18T00:47:39.836Z,66.50
2019-02-18T00:50:07.917Z,64.42
2019-02-18T00:52:35.955Z,61.53
2019-02-18T00:55:04.074Z,60.75
2019-02-18T00:57:31.914Z,63.98
2019-02-18T00:59:59.764Z,64.72
2019-02-18T01:02:27.866Z,75.17
2019-02-18T01:04:55.965Z,70.87
2019-02-18T01:07:34.218Z,75.92
2019-02-18T01:09:53.835Z,74.05
2019-02-18T01:12:22.219Z,77.22
2019-02-18T01:14:50.703Z,76.37
2019-02-18T01:17:18.461Z,76.47
2019-02-18T01:19:46.298Z,79.03
2019-02-18T01:22:14.372Z,77.53
2019-02-18T01:24:42.350Z,134.78
2019-02-18T01:27:10.237Z,99.42
2019-02-18T01:29:39.201Z,81.85
2019-02-18T01:32:21.183Z,77.55
2019-02-18T01:34:49.024Z,78.60
2019-02-18T01:37:16.968Z,72.08
2019-02-18T01:39:44.959Z,77.00
2019-02-18T01:42:12.805Z,79.72
2019-02-18T01:44:40.719Z,77.95
2019-02-18T01:47:08.469Z,99.07
2019-02-18T01:49:36.610Z,80.55
2019-02-18T01:52:04.574Z,73.50
2019-02-18T01:54:32.493Z,73.15
2019-02-18T01:57:00.319Z,69.65
2019-02-18T01:59:28.380Z,71.00
2019-02-18T02:01:56.315Z,68.30
2019-02-18T02:04:24.293Z,71.17
2019-02-18T02:06:52.093Z,69.67
2019-02-18T02:09:20.018Z,69.15
2019-02-18T02:11:47.807Z,67.87
2019-02-18T02:14:15.886Z,63.90
2019-02-18T02:16:43.802Z,63.58
2019-02-18T02:19:11.792Z,62.70
2019-02-18T02:21:39.649Z,62.20
2019-02-18T02:24:08.058Z,64.67
2019-02-18T02:26:35.933Z,62.43
2019-02-18T02:29:04.128Z,63.30
2019-02-18T02:31:32.143Z,61.02
2019-02-18T02:34:14.022Z,62.33
2019-02-18T02:36:41.840Z,60.70
2019-02-18T02:39:09.729Z,57.58
2019-02-18T02:41:37.623Z,57.10
2019-02-18T02:44:05.695Z,53.80
2019-02-18T02:46:33.645Z,51.68
2019-02-18T02:49:04.719Z,52.53
2019-02-18T02:51:32.538Z,50.58
2019-02-18T02:54:00.378Z,51.15
2019-02-18T02:56:28.257Z,51.73
2019-02-18T02:58:56.076Z,50.60
2019-02-18T03:01:24.263Z,51.05
2019-02-18T03:03:52.129Z,48.83
2019-02-18T03:06:20.059Z,50.40
2019-02-18T03:08:47.950Z,53.10
2019-02-18T03:11:15.778Z,49.60
2019-02-18T03:13:43.575Z,50.12
2019-02-18T03:16:11.527Z,50.10
2019-02-18T03:18:39.351Z,49.30
2019-02-18T03:21:07.294Z,50.55
2019-02-18T03:23:35.169Z,50.45
2019-02-18T03:26:03.168Z,50.43
2019-02-18T03:29:27.644Z,51.92
2019-02-18T03:31:55.568Z,53.90
2019-02-18T03:34:30.641Z,56.23
2019-02-18T03:36:59.067Z,54.23
2019-02-18T03:39:27.025Z,55.28
2019-02-18T03:41:55.119Z,53.85
2019-02-18T03:44:22.865Z,54.18
2019-02-18T03:46:51.679Z,56.70
2019-02-18T03:49:19.453Z,54.63
2019-02-18T03:51:47.267Z,56.65
2019-02-18T03:54:15.347Z,58.30
2019-02-18T03:56:43.274Z,55.23
2019-02-18T03:59:11.356Z,57.17
2019-02-18T04:01:39.703Z,59.45
2019-02-18T04:04:07.660Z,54.45
2019-02-18T04:06:35.589Z,58.55
2019-02-18T04:09:04.601Z,59.05
2019-02-18T04:11:32.465Z,56.02
2019-02-18T04:14:00.295Z,53.60
2019-02-18T04:16:28.144Z,53.95
2019-02-18T04:18:56.065Z,52.43
2019-02-18T04:21:23.848Z,52.13
2019-02-18T04:23:51.658Z,51.88
2019-02-18T04:26:19.410Z,55.88
2019-02-18T04:28:47.927Z,57.45
2019-02-18T04:31:15.834Z,51.40
2019-02-18T04:33:44.457Z,48.78
2019-02-18T04:36:12.236Z,50.88
2019-02-18T04:38:53.617Z,50.73
2019-02-18T04:41:11.906Z,48.25
2019-02-18T04:43:42.017Z,46.48
2019-02-18T04:46:09.486Z,48.60
2019-02-18T04:48:37.412Z,48.35
2019-02-18T04:51:06.180Z,51.02
2019-02-18T04:53:33.973Z,49.67
2019-02-18T04:56:01.808Z,54.63
2019-02-18T04:58:30.410Z,54.05
2019-02-18T05:00:58.319Z,58.00
2019-02-18T05:03:26.151Z,60.67
2019-02-18T05:05:54.170Z,58.60
2019-02-18T05:08:22.125Z,54.18
2019-02-18T05:10:49.880Z,54.85
2019-02-18T05:13:17.774Z,48.83
2019-02-18T05:15:45.522Z,46.75
2019-02-18T05:18:13.921Z,48.70
2019-02-18T05:20:41.815Z,47.93
2019-02-18T05:23:09.749Z,47.53
2019-02-18T05:25:37.507Z,47.75
2019-02-18T05:28:05.516Z,48.65
2019-02-18T05:30:33.357Z,50.63
2019-02-18T05:33:01.186Z,54.38
2019-02-18T05:35:28.971Z,54.18
2019-02-18T05:37:56.979Z,56.13
2019-02-18T05:40:27.650Z,61.42
2019-02-18T05:42:55.485Z,86.60
2019-02-18T05:45:23.283Z,67.87
2019-02-18T05:47:51.024Z,69.55
2019-02-18T05:50:18.920Z,74.70
2019-02-18T05:52:48.724Z,72.12
2019-02-18T05:55:16.536Z,67.32
2019-02-18T05:57:44.411Z,68.62
2019-02-18T06:00:13.401Z,62.93
2019-02-18T06:02:41.218Z,61.83
2019-02-18T06:05:09.242Z,57.90
2019-02-18T06:07:36.969Z,56.83
2019-02-18T06:10:06.101Z,58.50
2019-02-18T06:12:33.870Z,57.48
2019-02-18T06:15:01.781Z,58.02
2019-02-18T06:17:29.555Z,59.25
2019-02-18T06:19:57.354Z,60.90
2019-02-18T06:22:25.095Z,67.00
2019-02-18T06:24:53.059Z,68.75
2019-02-18T06:27:20.879Z,71.07
2019-02-18T06:29:48.778Z,72.30
2019-02-18T06:32:16.517Z,75.50
2019-02-18T06:34:44.489Z,73.67
2019-02-18T06:37:12.310Z,73.33
2019-02-18T06:39:41.681Z,73.57
2019-02-18T06:42:11.294Z,70.45
2019-02-18T06:44:45.784Z,65.67
2019-02-18T06:47:19.433Z,66.25
2019-02-18T06:49:47.260Z,70.37
2019-02-18T06:52:14.972Z,69.95
2019-02-18T06:54:42.785Z,69.15
2019-02-18T06:57:45.030Z,70.15
2019-02-18T07:00:32.481Z,70.05
2019-02-18T07:03:25.564Z,70.65
2019-02-18T07:06:04.819Z,73.75
2019-02-18T07:08:56.107Z,79.03
2019-02-18T07:11:37.247Z,74.95
2019-02-18T07:14:12.046Z,78.60
2019-02-18T07:16:40.640Z,78.62
2019-02-18T07:19:08.448Z,75.40
2019-02-18T07:21:36.304Z,74.35
2019-02-18T07:24:04.168Z,73.12
2019-02-18T07:26:32.080Z,71.47
2019-02-18T07:28:59.823Z,65.25
2019-02-18T07:31:27.692Z,60.10
2019-02-18T07:33:56.031Z,58.13
2019-02-18T07:36:24.664Z,58.08
2019-02-18T07:38:52.408Z,55.88
2019-02-18T07:41:20.304Z,59.30
2019-02-18T07:43:48.576Z,58.15
2019-02-18T07:46:17.207Z,61.18
2019-02-18T07:48:44.972Z,57.17
2019-02-18T07:51:14.156Z,55.20
2019-02-18T07:53:42.018Z,57.17
2019-02-18T07:56:09.788Z,57.33
2019-02-18T07:58:37.701Z,62.65
2019-02-18T08:01:05.525Z,65.35
2019-02-18T08:03:33.351Z,64.85
2019-02-18T08:06:01.226Z,67.10
2019-02-18T08:08:29.156Z,69.35
2019-02-18T08:10:57.031Z,65.97
2019-02-18T08:13:26.751Z,66.50
2019-02-18T08:16:02.151Z,71.47
2019-02-18T08:18:30.108Z,68.30
2019-02-18T08:20:57.940Z,71.72
2019-02-18T08:23:26.563Z,71.97
2019-02-18T08:25:54.333Z,73.67
2019-02-18T08:28:22.253Z,71.95
2019-02-18T08:30:50.056Z,69.95
2019-02-18T08:33:17.927Z,67.97
2019-02-18T08:35:45.657Z,71.35
2019-02-18T08:38:13.450Z,70.05
2019-02-18T08:40:41.204Z,71.55
2019-02-18T08:43:09.229Z,66.42
2019-02-18T08:45:36.987Z,66.85
2019-02-18T08:48:05.028Z,70.03
2019-02-18T08:50:32.878Z,68.07
2019-02-18T08:53:00.794Z,68.83
2019-02-18T08:55:28.635Z,66.82
2019-02-18T08:57:56.541Z,70.05
2019-02-18T09:00:24.403Z,67.92
2019-02-18T09:02:52.365Z,71.75
2019-02-18T09:05:20.433Z,67.03
2019-02-18T09:07:48.491Z,63.25
2019-02-18T09:10:16.241Z,60.15
2019-02-18T09:12:44.084Z,61.42
2019-02-18T09:15:14.124Z,60.85
2019-02-18T09:17:42.001Z,66.20
2019-02-18T09:20:10.013Z,68.07
2019-02-18T09:22:53.293Z,72.08
2019-02-18T09:25:23.846Z,69.17
2019-02-18T09:27:51.787Z,70.67
2019-02-18T09:30:23.820Z,61.45
2019-02-18T09:32:51.745Z,58.05
2019-02-18T09:35:19.553Z,58.48
2019-02-18T09:37:47.404Z,59.05
2019-02-18T09:40:15.337Z,55.05
2019-02-18T09:42:43.213Z,56.02
2019-02-18T09:45:14.554Z,61.80
2019-02-18T09:47:41.896Z,58.90
2019-02-18T09:50:09.955Z,61.35
2019-02-18T09:52:37.911Z,57.85
2019-02-18T09:55:06.545Z,63.75
2019-02-18T09:57:34.334Z,65.52
2019-02-18T10:00:02.449Z,58.73
2019-02-18T10:02:30.225Z,58.15
2019-02-18T10:04:58.136Z,59.58
2019-02-18T10:07:26.126Z,53.05
2019-02-18T10:09:53.970Z,49.88
2019-02-18T10:12:21.956Z,51.50
2019-02-18T10:14:49.834Z,49.83
2019-02-18T10:17:17.770Z,49.27
2019-02-18T10:19:47.048Z,46.25
2019-02-18T10:22:14.902Z,50.50
2019-02-18T10:24:50.726Z,47.67
2019-02-18T10:27:12.871Z,45.60
2019-02-18T10:29:40.799Z,47.03
2019-02-18T10:32:08.693Z,46.87
2019-02-18T10:34:37.521Z,45.10
2019-02-18T10:37:05.378Z,42.87
2019-02-18T10:39:33.329Z,42.87
2019-02-18T10:42:01.366Z,40.83
2019-02-18T10:44:29.572Z,41.60
2019-02-18T10:46:57.480Z,47.90
2019-02-18T10:49:25.355Z,42.63
2019-02-18T10:51:55.226Z,40.13
2019-02-18T10:54:23.198Z,40.40
2019-02-18T10:56:51.123Z,38.37
2019-02-18T10:59:18.995Z,37.53
2019-02-18T11:01:46.809Z,35.23
2019-02-18T11:04:14.554Z,34.93
2019-02-18T11:06:42.584Z,34.30
2019-02-18T11:09:11.234Z,33.40
2019-02-18T11:11:39.070Z,31.27
2019-02-18T11:14:06.938Z,32.07
2019-02-18T11:16:34.955Z,33.20
2019-02-18T11:19:02.933Z,32.50
2019-02-18T11:21:30.825Z,32.20
2019-02-18T11:23:58.707Z,32.57
2019-02-18T11:26:26.718Z,32.63
2019-02-18T11:28:54.580Z,32.37
2019-02-18T11:31:22.510Z,32.50
2019-02-18T11:33:50.335Z,30.83
2019-02-18T11:36:18.352Z,31.97
2019-02-18T11:38:46.111Z,32.00
2019-02-18T11:41:14.035Z,32.97
2019-02-18T11:43:41.767Z,30.93
2019-02-18T11:46:09.569Z,32.23
2019-02-18T11:48:37.728Z,32.40
2019-02-18T11:51:05.727Z,32.03
2019-02-18T11:53:33.491Z,31.20
2019-02-18T11:56:01.840Z,30.00
2019-02-18T11:58:29.618Z,29.57
2019-02-18T12:00:57.377Z,30.47
2019-02-18T12:03:25.609Z,27.27
2019-02-18T12:05:53.396Z,27.07
2019-02-18T12:08:21.306Z,26.93
2019-02-18T12:10:49.331Z,27.40
2019-02-18T12:13:17.134Z,27.13
2019-02-18T12:15:44.900Z,25.67
2019-02-18T12:18:13.853Z,27.77
2019-02-18T12:20:41.877Z,28.00
2019-02-18T12:23:09.799Z,21.80
2019-02-18T12:25:41.993Z,20.97
2019-02-18T12:28:09.784Z,19.47
2019-02-18T12:30:37.730Z,15.27
2019-02-18T12:33:05.618Z,17.23
2019-02-18T12:35:34.694Z,18.23
2019-02-18T12:38:03.127Z,15.33
2019-02-18T12:40:30.869Z,16.47
2019-02-18T12:42:58.651Z,16.77
2019-02-18T12:45:27.006Z,15.00
2019-02-18T12:47:55.018Z,14.10
2019-02-18T12:50:22.858Z,13.07
2019-02-18T12:52:51.067Z,13.13
2019-02-18T12:55:19.035Z,12.53
2019-02-18T12:57:47.130Z,11.90
2019-02-18T13:00:15.588Z,12.10
2019-02-18T13:02:45.060Z,11.47
2019-02-18T13:05:14.009Z,14.77
2019-02-18T13:07:42.711Z,14.90
2019-02-18T13:10:11.484Z,12.63
2019-02-18T13:12:39.785Z,12.33
2019-02-18T13:15:09.523Z,12.27
2019-02-18T13:17:37.570Z,11.53
2019-02-18T13:20:07.588Z,11.63
2019-02-18T13:22:35.518Z,10.80
2019-02-18T13:25:03.453Z,11.50
2019-02-18T13:27:34.407Z,10.63
2019-02-18T13:30:04.208Z,13.10
2019-02-18T13:32:32.055Z,13.40
2019-02-18T13:34:59.961Z,14.83
2019-02-18T13:37:27.855Z,14.07
2019-02-18T13:39:55.909Z,13.00
2019-02-18T13:42:23.670Z,13.57
2019-02-18T13:44:51.493Z,14.87
2019-02-18T13:47:19.674Z,14.80
2019-02-18T13:49:47.415Z,15.13
2019-02-18T13:52:15.315Z,14.30
2019-02-18T13:54:43.046Z,13.83
2019-02-18T13:57:11.006Z,15.20
2019-02-18T13:59:38.798Z,14.47
2019-02-18T14:02:07.243Z,13.87
2019-02-18T14:04:35.446Z,16.83
2019-02-18T14:07:03.443Z,18.43
2019-02-18T14:09:31.335Z,16.20
2019-02-18T14:11:59.161Z,17.67
2019-02-18T14:14:26.966Z,18.57
2019-02-18T14:16:54.822Z,18.83
2019-02-18T14:19:22.835Z,17.53
2019-02-18T14:21:51.382Z,18.17
2019-02-18T14:24:19.388Z,18.93
2019-02-18T14:26:47.113Z,20.97
2019-02-18T14:29:15.007Z,22.70
2019-02-18T14:31:43.684Z,21.23
2019-02-18T14:34:11.742Z,21.27
2019-02-18T14:36:40.066Z,20.93
2019-02-18T14:39:11.060Z,21.53
2019-02-18T14:41:38.882Z,19.97
2019-02-18T14:44:07.664Z,20.07
2019-02-18T14:46:35.488Z,19.77
2019-02-18T14:49:03.509Z,19.47
2019-02-18T14:51:31.240Z,17.87
2019-02-18T14:53:59.232Z,18.50
2019-02-18T14:56:27.087Z,18.80
2019-02-18T14:58:55.407Z,19.03
2019-02-18T15:01:23.271Z,19.53
2019-02-18T15:03:51.358Z,18.93
2019-02-18T15:06:19.372Z,17.17
2019-02-18T15:08:47.210Z,18.23
2019-02-18T15:11:14.977Z,16.67
2019-02-18T15:13:42.739Z,17.60
2019-02-18T15:16:10.523Z,23.27
2019-02-18T15:18:38.391Z,22.17
2019-02-18T15:21:07.404Z,18.90
2019-02-18T15:23:35.171Z,17.40
2019-02-18T15:26:03.476Z,22.10
2019-02-18T15:28:31.296Z,21.47
2019-02-18T15:30:59.211Z,18.07
2019-02-18T15:33:27.004Z,19.50
2019-02-18T15:35:55.911Z,17.87
2019-02-18T15:38:23.841Z,15.50
2019-02-18T15:40:51.741Z,15.57
2019-02-18T15:43:19.999Z,18.37
2019-02-18T15:45:47.889Z,21.23
2019-02-18T15:48:15.821Z,32.07
2019-02-18T15:50:43.911Z,34.63
2019-02-18T15:53:11.761Z,30.83
2019-02-18T15:55:40.977Z,31.17
2019-02-18T15:58:09.209Z,26.83
2019-02-18T16:00:37.509Z,25.20
2019-02-18T16:03:05.481Z,26.27
2019-02-18T16:05:33.564Z,27.60
2019-02-18T16:08:01.302Z,29.57
2019-02-18T16:10:29.206Z,29.27
2019-02-18T16:12:57.173Z,28.10
2019-02-18T16:15:25.391Z,26.70
2019-02-18T16:17:53.242Z,24.87
2019-02-18T16:20:21.047Z,29.00
2019-02-18T16:22:48.838Z,27.47
2019-02-18T16:25:18.732Z,25.77
2019-02-18T16:27:46.862Z,26.27
2019-02-18T16:30:14.890Z,38.20
2019-02-18T16:32:43.102Z,76.13
2019-02-18T16:35:11.410Z,192.77
2019-02-18T16:37:39.810Z,247.97
2019-02-18T16:40:09.907Z,168.17
2019-02-18T16:42:37.952Z,174.43
2019-02-18T16:45:07.061Z,138.80
2019-02-18T16:47:34.973Z,129.93
2019-02-18T16:50:02.971Z,113.20
2019-02-18T16:52:30.805Z,103.83
2019-02-18T16:54:58.656Z,98.57
2019-02-18T16:57:26.446Z,109.47
2019-02-18T16:59:54.286Z,104.20
2019-02-18T17:02:22.165Z,95.90
2019-02-18T17:04:50.062Z,94.90
2019-02-18T17:07:17.886Z,101.50
2019-02-18T17:09:45.629Z,99.10
2019-02-18T17:12:14.147Z,108.57
2019-02-18T17:14:41.959Z,109.40
2019-02-18T17:17:09.806Z,100.40
2019-02-18T17:19:37.552Z,105.93
2019-02-18T17:22:05.424Z,111.63
2019-02-18T17:24:33.351Z,419.53
2019-02-18T17:27:01.301Z,699.87
2019-02-18T17:29:30.067Z,253.80
2019-02-18T17:31:57.942Z,348.70
2019-02-18T17:34:25.865Z,449.47
2019-02-18T17:36:53.899Z,313.83
2019-02-18T17:39:21.658Z,184.80
2019-02-18T17:41:50.204Z,123.10
2019-02-18T17:44:20.371Z,100.87
2019-02-18T17:46:48.007Z,95.43
2019-02-18T17:49:15.951Z,95.43
2019-02-18T17:51:43.833Z,91.53
2019-02-18T17:54:12.009Z,88.63
2019-02-18T17:56:39.806Z,86.47
2019-02-18T17:59:08.365Z,85.13
2019-02-18T18:01:36.265Z,99.67
2019-02-18T18:04:04.289Z,98.47
2019-02-18T18:06:32.322Z,95.23
2019-02-18T18:09:00.217Z,89.07
2019-02-18T18:11:28.380Z,84.03
2019-02-18T18:13:56.318Z,85.03
2019-02-18T18:16:24.085Z,82.97
2019-02-18T18:18:51.947Z,90.17
2019-02-18T18:21:19.809Z,83.27
2019-02-18T18:23:47.765Z,83.83
2019-02-18T18:26:15.638Z,85.70
2019-02-18T18:28:44.485Z,82.30
2019-02-18T18:31:12.271Z,84.60
2019-02-18T18:33:40.094Z,81.83
2019-02-18T18:36:08.018Z,97.90
2019-02-18T18:38:38.686Z,106.87
2019-02-18T18:41:06.617Z,130.43
2019-02-18T18:43:34.832Z,153.30
2019-02-18T18:46:02.828Z,158.77
2019-02-18T18:48:30.768Z,152.03
2019-02-18T18:50:58.598Z,144.80
2019-02-18T18:53:27.414Z,129.27
2019-02-18T18:55:55.223Z,124.73
2019-02-18T18:58:23.027Z,285.13
2019-02-18T19:00:51.107Z,273.50
2019-02-18T19:03:18.892Z,98.50
2019-02-18T19:05:48.112Z,102.80
2019-02-18T19:08:16.031Z,98.43
2019-02-18T19:10:43.991Z,109.47
2019-02-18T19:13:11.852Z,113.47
2019-02-18T19:15:40.188Z,108.30
2019-02-18T19:18:08.196Z,109.53
2019-02-18T19:20:36.103Z,104.70
2019-02-18T19:23:03.981Z,99.90
2019-02-18T19:25:31.988Z,99.80
2019-02-18T19:27:59.770Z,91.93
2019-02-18T19:30:28.543Z,90.17
2019-02-18T19:32:56.306Z,89.50
2019-02-18T19:35:24.438Z,93.30
2019-02-18T19:37:52.310Z,92.20
2019-02-18T19:40:31.942Z,85.10
2019-02-18T19:42:59.985Z,93.67
2019-02-18T19:45:27.877Z,87.00
2019-02-18T19:47:55.982Z,94.73
2019-02-18T19:50:23.798Z,91.00
2019-02-18T19:52:51.567Z,90.50
2019-02-18T19:55:19.515Z,91.83
2019-02-18T19:57:47.564Z,107.10
2019-02-18T20:00:17.322Z,102.57
2019-02-18T20:02:45.333Z,92.57
2019-02-18T20:05:13.402Z,87.10
2019-02-18T20:07:41.354Z,105.53
2019-02-18T20:10:09.917Z,351.60
2019-02-18T20:12:37.857Z,264.47
2019-02-18T20:15:06.020Z,427.20
2019-02-18T20:17:33.808Z,283.43
2019-02-18T20:20:01.850Z,114.63
2019-02-18T20:22:29.793Z,115.40
2019-02-18T20:24:57.776Z,130.63
2019-02-18T20:27:25.722Z,182.60
2019-02-18T20:29:53.561Z,192.90
2019-02-18T20:32:21.888Z,223.60
2019-02-18T20:34:49.920Z,181.87
2019-02-18T20:37:17.910Z,130.03
2019-02-18T20:39:45.869Z,106.10
2019-02-18T20:42:17.108Z,277.77
2019-02-18T20:44:45.177Z,303.17
2019-02-18T20:47:13.398Z,267.50
2019-02-18T20:49:41.283Z,280.90
2019-02-18T20:52:09.288Z,136.03
2019-02-18T20:54:38.089Z,118.90
2019-02-18T20:57:06.400Z,130.90
2019-02-18T20:59:34.420Z,131.83
2019-02-18T21:02:02.592Z,107.63
2019-02-18T21:04:31.083Z,103.70
2019-02-18T21:06:59.035Z,111.47
2019-02-18T21:09:26.994Z,116.17
2019-02-18T21:11:54.813Z,120.60
2019-02-18T21:14:22.704Z,136.97
2019-02-18T21:16:50.732Z,142.90
2019-02-18T21:19:19.011Z,139.00
2019-02-18T21:21:46.988Z,127.80
2019-02-18T21:24:15.013Z,138.37
2019-02-18T21:26:42.933Z,138.70
2019-02-18T21:29:11.767Z,162.60
2019-02-18T21:31:40.982Z,190.07
2019-02-18T21:34:09.056Z,134.13
2019-02-18T21:36:37.389Z,119.60
2019-02-18T21:39:11.888Z,125.60
2019-02-18T21:41:40.264Z,129.27
2019-02-18T21:44:08.321Z,129.40
2019-02-18T21:46:36.388Z,120.93
2019-02-18T21:49:04.362Z,115.67
2019-02-18T21:51:33.347Z,123.30
2019-02-18T21:54:01.500Z,117.30
2019-02-18T21:56:29.760Z,119.83
2019-02-18T21:58:57.821Z,112.97
2019-02-18T22:01:25.862Z,117.03
2019-02-18T22:03:53.792Z,113.67
2019-02-18T22:06:22.143Z,112.50
2019-02-18T22:08:49.986Z,121.43
2019-02-18T22:11:17.960Z,114.77
2019-02-18T22:13:45.787Z,113.90
2019-02-18T22:16:17.920Z,113.30
2019-02-18T22:18:45.876Z,112.43
2019-02-18T22:21:13.734Z,118.33
2019-02-18T22:23:42.078Z,110.87
2019-02-18T22:26:10.057Z,110.50
2019-02-18T22:28:37.955Z,128.07
2019-02-18T22:31:05.912Z,243.27
2019-02-18T22:33:33.725Z,325.83
2019-02-18T22:36:01.484Z,139.70
2019-02-18T22:38:29.495Z,188.37
2019-02-18T22:40:57.448Z,104.87
2019-02-18T22:43:25.290Z,97.67
2019-02-18T22:45:53.089Z,95.90
2019-02-18T22:48:21.044Z,97.00
2019-02-18T22:50:49.008Z,98.63
2019-02-18T22:53:17.750Z,86.17
2019-02-18T22:55:45.802Z,83.50
2019-02-18T22:58:13.810Z,84.83
2019-02-18T23:00:59.595Z,75.70
2019-02-18T23:03:27.669Z,78.50
2019-02-18T23:05:55.658Z,83.20
2019-02-18T23:08:23.592Z,78.05
2019-02-18T23:10:51.637Z,74.20
2019-02-18T23:13:19.862Z,68.90
2019-02-18T23:15:47.815Z,68.57
2019-02-18T23:18:15.814Z,68.25
2019-02-18T23:20:43.621Z,67.40
2019-02-18T23:23:11.521Z,64.73
2019-02-18T23:25:39.553Z,65.25
2019-02-18T23:28:07.428Z,66.00
2019-02-18T23:30:35.845Z,66.80
2019-02-18T23:33:03.832Z,65.87
2019-02-18T23:35:31.758Z,66.02
2019-02-18T23:37:59.768Z,68.28
2019-02-18T23:40:27.597Z,70.85
2019-02-18T23:42:55.458Z,74.95
2019-02-18T23:45:23.373Z,69.50
2019-02-18T23:47:51.153Z,69.47
2019-02-18T23:50:21.473Z,77.90
2019-02-18T23:52:50.165Z,79.25
2019-02-18T23:55:18.009Z,70.20
2019-02-18T23:57:45.906Z,74.07
